createdAt,value
2017-02-20T00:00:57.797Z,26.12
2017-02-20T00:01:57.795Z,26.12
2017-02-20T00:02:57.827Z,25.93
2017-02-20T00:03:57.861Z,25.93
2017-02-20T00:04:57.812Z,26.03
2017-02-20T00:05:57.825Z,26.03
2017-02-20T00:06:57.822Z,26.03
2017-02-20T00:07:57.828Z,25.93
2017-02-20T00:08:57.496Z,26.03
2017-02-20T00:09:57.891Z,26.12
2017-02-20T00:10:57.846Z,26.12
2017-02-20T00:11:57.908Z,25.93
2017-02-20T00:12:57.856Z,26.32
2017-02-20T00:13:57.914Z,26.03
2017-02-20T00:14:57.920Z,26.03
2017-02-20T00:15:57.924Z,26.12
2017-02-20T00:16:57.885Z,26.03
2017-02-20T00:17:57.885Z,25.93
2017-02-20T00:18:57.991Z,25.93
2017-02-20T00:19:57.549Z,25.93
2017-02-20T00:20:57.910Z,26.12
2017-02-20T00:21:57.510Z,26.03
2017-02-20T00:22:57.918Z,26.22
2017-02-20T00:23:57.923Z,26.22
2017-02-20T00:24:58.007Z,26.12
2017-02-20T00:25:57.934Z,26.22
2017-02-20T00:26:57.935Z,26.12
2017-02-20T00:27:57.942Z,26.12
2017-02-20T00:28:57.947Z,25.93
2017-02-20T00:29:57.568Z,26.12
2017-02-20T00:30:57.966Z,26.32
2017-02-20T00:31:58.015Z,26.22
2017-02-20T00:32:57.969Z,26.22
2017-02-20T00:33:57.975Z,26.22
2017-02-20T00:34:58.331Z,26.22
2017-02-20T00:35:57.991Z,26.22
2017-02-20T00:36:57.991Z,26.12
2017-02-20T00:37:57.998Z,26.12
2017-02-20T00:38:58.108Z,26.32
2017-02-20T00:39:58.056Z,26.22
2017-02-20T00:40:58.066Z,26.12
2017-02-20T00:41:58.024Z,26.32
2017-02-20T00:42:58.028Z,26.22
2017-02-20T00:44:12.508Z,26.22
2017-02-20T00:44:58.035Z,26.32
2017-02-20T00:45:58.091Z,26.22
2017-02-20T00:46:58.046Z,26.12
2017-02-20T00:47:58.104Z,25.93
2017-02-20T00:48:58.062Z,26.03
2017-02-20T00:49:58.064Z,26.12
2017-02-20T00:50:58.078Z,26.03
2017-02-20T00:51:58.127Z,26.12
2017-02-20T00:52:58.091Z,26.22
2017-02-20T00:53:58.096Z,26.22
2017-02-20T00:54:58.091Z,26.12
2017-02-20T00:55:58.152Z,26.22
2017-02-20T00:56:58.151Z,26.32
2017-02-20T00:57:58.109Z,26.22
2017-02-20T00:58:58.112Z,26.12
2017-02-20T00:59:58.118Z,26.22
2017-02-20T01:00:58.176Z,26.12
2017-02-20T01:01:58.139Z,26.12
2017-02-20T01:02:58.145Z,26.12
2017-02-20T01:03:58.152Z,26.22
2017-02-20T01:04:58.151Z,26.12
2017-02-20T01:05:58.206Z,26.12
2017-02-20T01:06:58.159Z,26.22
2017-02-20T01:07:58.169Z,26.22
2017-02-20T01:08:58.527Z,26.22
2017-02-20T01:09:58.235Z,26.32
2017-02-20T01:10:57.807Z,26.22
2017-02-20T01:11:58.241Z,26.22
2017-02-20T01:12:58.193Z,26.22
2017-02-20T01:13:58.197Z,26.32
2017-02-20T01:14:57.811Z,26.22
2017-02-20T01:15:58.212Z,26.12
2017-02-20T01:16:58.216Z,26.12
2017-02-20T01:17:58.280Z,26.22
2017-02-20T01:18:58.275Z,26.22
2017-02-20T01:19:58.231Z,26.22
2017-02-20T01:20:58.298Z,26.12
2017-02-20T01:21:58.244Z,26.42
2017-02-20T01:22:58.349Z,26.42
2017-02-20T01:23:58.257Z,26.51
2017-02-20T01:24:58.261Z,26.22
2017-02-20T01:25:58.263Z,26.32
2017-02-20T01:26:58.326Z,26.22
2017-02-20T01:27:58.277Z,26.42
2017-02-20T01:28:58.333Z,26.22
2017-02-20T01:29:58.290Z,26.32
2017-02-20T01:30:58.300Z,26.32
2017-02-20T01:31:58.314Z,26.12
2017-02-20T01:32:58.303Z,26.22
2017-02-20T01:33:57.915Z,26.12
2017-02-20T01:34:58.315Z,26.32
2017-02-20T01:35:58.318Z,26.32
2017-02-20T01:36:57.982Z,26.42
2017-02-20T01:37:58.430Z,26.32
2017-02-20T01:38:58.344Z,26.32
2017-02-20T01:39:58.405Z,26.22
2017-02-20T01:40:58.349Z,26.61
2017-02-20T01:41:58.355Z,26.51
2017-02-20T01:42:58.416Z,26.22
2017-02-20T01:43:58.364Z,26.22
2017-02-20T01:44:58.420Z,26.12
2017-02-20T01:45:57.979Z,26.32
2017-02-20T01:46:58.436Z,26.32
2017-02-20T01:47:58.389Z,26.51
2017-02-20T01:48:58.390Z,26.12
2017-02-20T01:49:58.401Z,26.32
2017-02-20T01:50:58.430Z,26.32
2017-02-20T01:51:58.416Z,26.22
2017-02-20T01:52:58.416Z,26.22
2017-02-20T01:53:58.471Z,26.22
2017-02-20T01:54:58.428Z,26.22
2017-02-20T01:55:58.432Z,26.32
2017-02-20T01:56:58.486Z,26.42
2017-02-20T01:57:58.453Z,26.32
2017-02-20T01:58:58.068Z,26.22
2017-02-20T01:59:58.451Z,26.12
2017-02-20T02:00:58.466Z,26.22
2017-02-20T02:01:58.466Z,26.32
2017-02-20T02:02:58.523Z,26.32
2017-02-20T02:03:58.483Z,26.22
2017-02-20T02:04:58.484Z,26.22
2017-02-20T02:05:58.487Z,26.03
2017-02-20T02:06:58.495Z,26.32
2017-02-20T02:07:58.545Z,25.93
2017-02-20T02:08:58.556Z,26.42
2017-02-20T02:09:58.582Z,26.42
2017-02-20T02:10:58.519Z,26.32
2017-02-20T02:11:58.132Z,26.32
2017-02-20T02:12:58.627Z,26.51
2017-02-20T02:13:58.533Z,26.51
2017-02-20T02:14:58.587Z,26.61
2017-02-20T02:15:58.593Z,26.32
2017-02-20T02:16:58.551Z,26.12
2017-02-20T02:17:58.162Z,26.12
2017-02-20T02:18:58.610Z,26.32
2017-02-20T02:19:58.567Z,26.32
2017-02-20T02:20:58.597Z,26.32
2017-02-20T02:21:58.579Z,26.32
2017-02-20T02:22:58.189Z,26.42
2017-02-20T02:23:58.640Z,26.61
2017-02-20T02:24:58.947Z,26.32
2017-02-20T02:25:58.698Z,26.32
2017-02-20T02:26:58.714Z,26.8
2017-02-20T02:27:58.662Z,26.7
2017-02-20T02:28:58.666Z,26.61
2017-02-20T02:29:58.620Z,26.61
2017-02-20T02:30:58.625Z,26.22
2017-02-20T02:31:58.684Z,26.61
2017-02-20T02:32:58.651Z,26.61
2017-02-20T02:33:58.656Z,26.32
2017-02-20T02:34:58.654Z,26.42
2017-02-20T02:35:58.308Z,26.32
2017-02-20T02:36:58.271Z,26.51
2017-02-20T02:37:58.729Z,26.42
2017-02-20T02:38:58.671Z,26.51
2017-02-20T02:39:58.690Z,26.32
2017-02-20T02:40:58.682Z,26.32
2017-02-20T02:41:58.689Z,26.32
2017-02-20T02:42:58.693Z,26.03
2017-02-20T02:43:58.751Z,26.12
2017-02-20T02:44:58.704Z,26.32
2017-02-20T02:45:58.710Z,26.32
2017-02-20T02:46:58.741Z,26.42
2017-02-20T02:47:58.722Z,26.42
2017-02-20T02:48:58.726Z,26.42
2017-02-20T02:49:58.731Z,26.51
2017-02-20T02:50:58.789Z,26.42
2017-02-20T02:51:58.741Z,26.22
2017-02-20T02:52:58.354Z,26.32
2017-02-20T02:53:58.765Z,26.42
2017-02-20T02:54:58.758Z,26.12
2017-02-20T02:55:58.828Z,26.22
2017-02-20T02:56:58.378Z,26.32
2017-02-20T02:57:58.776Z,26.12
2017-02-20T02:58:58.385Z,26.42
2017-02-20T02:59:58.795Z,26.42
2017-02-20T03:00:58.813Z,26.32
2017-02-20T03:01:58.402Z,26.22
2017-02-20T03:02:58.860Z,26.42
2017-02-20T03:03:58.811Z,26.22
2017-02-20T03:04:58.424Z,26.51
2017-02-20T03:05:58.821Z,26.12
2017-02-20T03:06:58.828Z,26.32
2017-02-20T03:07:58.833Z,26.32
2017-02-20T03:08:58.840Z,26.42
2017-02-20T03:09:58.844Z,26.42
2017-02-20T03:10:58.850Z,26.7
2017-02-20T03:11:58.876Z,26.22
2017-02-20T03:12:58.859Z,26.51
2017-02-20T03:13:58.876Z,26.32
2017-02-20T03:14:58.870Z,26.22
2017-02-20T03:15:58.876Z,26.32
2017-02-20T03:16:58.933Z,26.22
2017-02-20T03:17:58.946Z,26.12
2017-02-20T03:18:58.967Z,26.22
2017-02-20T03:19:58.950Z,26.12
2017-02-20T03:20:58.918Z,26.12
2017-02-20T03:21:58.961Z,26.22
2017-02-20T03:22:58.918Z,26.22
2017-02-20T03:23:58.923Z,26.22
2017-02-20T03:24:58.930Z,26.12
2017-02-20T03:25:58.933Z,26.22
2017-02-20T03:26:58.941Z,26.12
2017-02-20T03:27:58.947Z,26.22
2017-02-20T03:28:58.951Z,26.12
2017-02-20T03:29:58.987Z,26.12
2017-02-20T03:30:58.964Z,26.22
2017-02-20T03:31:58.573Z,26.22
2017-02-20T03:32:58.972Z,26.22
2017-02-20T03:33:58.980Z,26.22
2017-02-20T03:34:58.588Z,26.22
2017-02-20T03:35:59.040Z,26.22
2017-02-20T03:36:58.997Z,26.22
2017-02-20T03:37:59.062Z,26.22
2017-02-20T03:38:58.624Z,26.42
2017-02-20T03:39:59.022Z,26.32
2017-02-20T03:40:59.032Z,26.32
2017-02-20T03:41:59.025Z,26.22
2017-02-20T03:42:59.045Z,26.12
2017-02-20T03:43:59.098Z,26.12
2017-02-20T03:44:59.046Z,26.22
2017-02-20T03:45:58.752Z,26.22
2017-02-20T03:46:58.709Z,26.12
2017-02-20T03:47:59.058Z,26.12
2017-02-20T03:48:59.083Z,26.22
2017-02-20T03:49:59.122Z,26.12
2017-02-20T03:50:59.126Z,26.12
2017-02-20T03:51:59.395Z,26.12
2017-02-20T03:52:59.086Z,26.12
2017-02-20T03:53:59.144Z,26.03
2017-02-20T03:54:59.111Z,26.03
2017-02-20T03:55:59.115Z,26.12
2017-02-20T03:56:58.714Z,25.93
2017-02-20T03:57:59.119Z,26.03
2017-02-20T03:58:59.125Z,25.93
2017-02-20T03:59:59.133Z,25.93
2017-02-20T04:00:59.135Z,26.12
2017-02-20T04:01:58.742Z,26.12
2017-02-20T04:02:59.144Z,26.22
2017-02-20T04:03:59.152Z,26.03
2017-02-20T04:04:59.161Z,26.03
2017-02-20T04:05:59.214Z,26.12
2017-02-20T04:06:59.169Z,26.12
2017-02-20T04:07:59.176Z,26.22
2017-02-20T04:08:59.182Z,26.12
2017-02-20T04:09:59.195Z,26.12
2017-02-20T04:10:59.455Z,26.22
2017-02-20T04:11:59.197Z,26.22
2017-02-20T04:12:59.256Z,26.22
2017-02-20T04:13:59.211Z,26.12
2017-02-20T04:14:59.223Z,26.22
2017-02-20T04:15:59.224Z,26.22
2017-02-20T04:16:59.232Z,26.22
2017-02-20T04:17:59.233Z,26.32
2017-02-20T04:18:59.239Z,26.42
2017-02-20T04:19:59.304Z,26.22
2017-02-20T04:20:59.251Z,26.32
2017-02-20T04:21:59.307Z,26.51
2017-02-20T04:22:59.360Z,26.32
2017-02-20T04:23:58.885Z,26.61
2017-02-20T04:24:59.275Z,26.61
2017-02-20T04:25:58.884Z,26.61
2017-02-20T04:26:59.282Z,26.7
2017-02-20T04:27:58.917Z,26.32
2017-02-20T04:28:59.296Z,26.51
2017-02-20T04:29:59.298Z,26.32
2017-02-20T04:30:59.372Z,26.51
2017-02-20T04:31:59.313Z,26.32
2017-02-20T04:32:59.324Z,26.22
2017-02-20T04:33:59.323Z,26.42
2017-02-20T04:34:58.987Z,26.32
2017-02-20T04:35:59.384Z,26.32
2017-02-20T04:36:59.340Z,26.32
2017-02-20T04:37:59.347Z,26.03
2017-02-20T04:38:59.652Z,26.32
2017-02-20T04:39:59.375Z,26.32
2017-02-20T04:40:59.366Z,26.32
2017-02-20T04:41:59.372Z,26.12
2017-02-20T04:42:59.034Z,26.32
2017-02-20T04:43:59.042Z,26.51
2017-02-20T04:44:59.384Z,26.32
2017-02-20T04:45:59.391Z,26.22
2017-02-20T04:46:59.448Z,26.42
2017-02-20T04:47:59.461Z,26.42
2017-02-20T04:48:59.421Z,26.22
2017-02-20T04:49:59.421Z,26.32
2017-02-20T04:50:59.418Z,26.61
2017-02-20T04:51:59.423Z,26.51
2017-02-20T04:52:59.035Z,26.5
2017-02-20T04:53:59.484Z,26.42
2017-02-20T04:54:59.057Z,26.42
2017-02-20T04:55:59.451Z,26.42
2017-02-20T04:56:59.502Z,26.51
2017-02-20T04:57:59.508Z,26.61
2017-02-20T04:58:59.464Z,26.42
2017-02-20T04:59:59.468Z,26.42
2017-02-20T05:00:59.480Z,26.22
2017-02-20T05:01:59.134Z,26.51
2017-02-20T05:02:59.486Z,26.32
2017-02-20T05:03:59.489Z,26.61
2017-02-20T05:04:59.151Z,26.51
2017-02-20T05:05:59.555Z,26.51
2017-02-20T05:06:59.609Z,26.32
2017-02-20T05:07:59.514Z,26.42
2017-02-20T05:08:59.139Z,26.42
2017-02-20T05:09:59.525Z,26.61
2017-02-20T05:10:59.539Z,26.7
2017-02-20T05:12:00.186Z,26.42
2017-02-20T05:12:59.593Z,26.51
2017-02-20T05:14:14.026Z,26.61
2017-02-20T05:14:59.553Z,26.61
2017-02-20T05:15:59.608Z,26.61
2017-02-20T05:16:59.574Z,26.51
2017-02-20T05:17:59.224Z,26.51
2017-02-20T05:18:59.574Z,26.51
2017-02-20T05:19:59.586Z,26.61
2017-02-20T05:20:59.596Z,26.61
2017-02-20T05:21:59.603Z,26.51
2017-02-20T05:22:59.595Z,26.61
2017-02-20T05:23:59.602Z,26.61
2017-02-20T05:24:59.711Z,26.51
2017-02-20T05:25:59.613Z,26.61
2017-02-20T05:26:59.670Z,26.22
2017-02-20T05:27:59.632Z,26.51
2017-02-20T05:28:59.630Z,26.42
2017-02-20T05:29:59.635Z,26.51
2017-02-20T05:30:59.639Z,26.51
2017-02-20T05:31:59.695Z,26.51
2017-02-20T05:32:59.703Z,26.61
2017-02-20T05:33:59.657Z,26.61
2017-02-20T05:34:59.716Z,26.61
2017-02-20T05:35:59.671Z,26.61
2017-02-20T05:36:59.672Z,26.61
2017-02-20T05:37:59.679Z,26.51
2017-02-20T05:38:59.685Z,26.61
2017-02-20T05:39:59.689Z,26.61
2017-02-20T05:40:59.746Z,26.5
2017-02-20T05:41:59.755Z,26.61
2017-02-20T05:42:59.705Z,26.7
2017-02-20T05:43:59.762Z,26.51
2017-02-20T05:44:59.372Z,26.61
2017-02-20T05:45:59.775Z,26.61
2017-02-20T05:46:59.780Z,26.7
2017-02-20T05:47:59.742Z,26.61
2017-02-20T05:48:59.741Z,26.61
2017-02-20T05:49:59.743Z,26.61
2017-02-20T05:50:59.753Z,26.7
2017-02-20T05:51:59.807Z,26.61
2017-02-20T05:53:00.212Z,27
2017-02-20T05:53:59.765Z,27.09
2017-02-20T05:54:59.772Z,26.8
2017-02-20T05:55:59.779Z,27
2017-02-20T05:56:59.836Z,27.09
2017-02-20T05:57:59.793Z,26.7
2017-02-20T05:58:59.797Z,27.19
2017-02-20T05:59:59.406Z,26.61
2017-02-20T06:00:59.828Z,26.98
2017-02-20T06:01:59.824Z,27
2017-02-20T06:02:59.471Z,26.7
2017-02-20T06:03:59.818Z,26.7
2017-02-20T06:04:59.827Z,27.09
2017-02-20T06:05:59.882Z,26.8
2017-02-20T06:06:59.893Z,26.61
2017-02-20T06:07:59.843Z,26.7
2017-02-20T06:08:59.855Z,26.7
2017-02-20T06:09:59.856Z,26.61
2017-02-20T06:10:59.862Z,26.8
2017-02-20T06:11:59.916Z,26.9
2017-02-20T06:12:59.871Z,26.98
2017-02-20T06:13:59.532Z,26.7
2017-02-20T06:14:59.931Z,26.89
2017-02-20T06:15:59.887Z,26.7
2017-02-20T06:17:00.057Z,27.09
2017-02-20T06:17:59.972Z,26.61
2017-02-20T06:18:59.906Z,26.7
2017-02-20T06:20:00.008Z,26.8
2017-02-20T06:20:59.974Z,26.79
2017-02-20T06:21:59.929Z,26.89
2017-02-20T06:22:59.976Z,26.69
2017-02-20T06:23:59.983Z,26.7
2017-02-20T06:24:59.937Z,26.79
2017-02-20T06:25:59.947Z,26.69
2017-02-20T06:26:59.955Z,26.8
2017-02-20T06:28:00.012Z,26.8
2017-02-20T06:29:00.010Z,26.7
2017-02-20T06:29:59.965Z,26.59
2017-02-20T06:31:00.028Z,26.8
2017-02-20T06:31:59.983Z,26.69
2017-02-20T06:32:59.983Z,26.59
2017-02-20T06:34:00.036Z,26.79
2017-02-20T06:34:59.599Z,26.51
2017-02-20T06:36:00.048Z,26.51
2017-02-20T06:37:00.006Z,26.8
2017-02-20T06:38:00.010Z,26.61
2017-02-20T06:39:00.016Z,26.61
2017-02-20T06:40:00.023Z,26.8
2017-02-20T06:41:00.083Z,26.79
2017-02-20T06:42:00.031Z,26.69
2017-02-20T06:43:00.036Z,26.61
2017-02-20T06:44:00.043Z,26.61
2017-02-20T06:45:00.048Z,26.69
2017-02-20T06:46:00.108Z,26.69
2017-02-20T06:46:59.683Z,26.7
2017-02-20T06:48:00.068Z,26.8
2017-02-20T06:49:00.071Z,26.9
2017-02-20T06:50:00.079Z,26.7
2017-02-20T06:51:00.085Z,26.69
2017-02-20T06:52:00.099Z,26.69
2017-02-20T06:52:59.731Z,26.7
2017-02-20T06:54:00.098Z,26.79
2017-02-20T06:55:00.205Z,26.69
2017-02-20T06:55:59.715Z,26.79
2017-02-20T06:57:00.170Z,26.9
2017-02-20T06:58:00.170Z,26.8
2017-02-20T06:59:00.124Z,26.8
2017-02-20T07:00:00.479Z,26.9
2017-02-20T07:01:00.138Z,26.8
2017-02-20T07:01:59.793Z,26.8
2017-02-20T07:03:00.147Z,26.79
2017-02-20T07:04:00.155Z,26.8
2017-02-20T07:05:00.159Z,26.8
2017-02-20T07:06:00.223Z,26.8
2017-02-20T07:07:00.175Z,26.7
2017-02-20T07:08:00.174Z,26.8
2017-02-20T07:09:00.180Z,26.79
2017-02-20T07:10:00.189Z,26.7
2017-02-20T07:11:00.189Z,26.8
2017-02-20T07:12:00.196Z,26.69
2017-02-20T07:13:00.212Z,26.9
2017-02-20T07:14:00.266Z,26.7
2017-02-20T07:15:00.212Z,26.7
2017-02-20T07:16:00.218Z,26.7
2017-02-20T07:17:00.271Z,26.7
2017-02-20T07:18:00.293Z,26.7
2017-02-20T07:18:59.864Z,26.8
2017-02-20T07:20:00.237Z,26.8
2017-02-20T07:20:59.849Z,26.7
2017-02-20T07:22:00.250Z,26.7
2017-02-20T07:22:59.864Z,26.8
2017-02-20T07:23:59.864Z,26.61
2017-02-20T07:25:00.270Z,26.7
2017-02-20T07:26:00.297Z,26.8
2017-02-20T07:27:00.277Z,26.7
2017-02-20T07:28:00.285Z,26.42
2017-02-20T07:29:00.286Z,26.32
2017-02-20T07:30:00.295Z,26.22
2017-02-20T07:30:59.953Z,25.95
2017-02-20T07:31:59.966Z,25.75
2017-02-20T07:33:00.359Z,25.85
2017-02-20T07:34:00.315Z,25.08
2017-02-20T07:35:00.327Z,25.48
2017-02-20T07:36:00.381Z,24.9
2017-02-20T07:37:00.334Z,24.8
2017-02-20T07:38:00.389Z,24.52
2017-02-20T07:38:59.950Z,24.33
2017-02-20T07:40:00.350Z,24.04
2017-02-20T07:41:00.355Z,24.43
2017-02-20T07:42:00.415Z,23.86
2017-02-20T07:42:59.973Z,24.24
2017-02-20T07:44:01.923Z,23.57
2017-02-20T07:45:00.381Z,23.38
2017-02-20T07:46:00.432Z,23.47
2017-02-20T07:47:00.401Z,23.38
2017-02-20T07:48:00.396Z,22.99
2017-02-20T07:49:00.004Z,22.81
2017-02-20T07:50:00.409Z,22.91
2017-02-20T07:51:00.410Z,23
2017-02-20T07:52:00.469Z,23.29
2017-02-20T07:53:00.030Z,23
2017-02-20T07:54:00.430Z,22.81
2017-02-20T07:55:00.435Z,23.39
2017-02-20T07:56:00.447Z,23.39
2017-02-20T07:57:00.458Z,23.29
2017-02-20T07:58:00.455Z,23.1
2017-02-20T07:59:00.462Z,23.1
2017-02-20T08:00:00.469Z,23.68
2017-02-20T08:01:00.473Z,23.1
2017-02-20T08:02:00.527Z,23.39
2017-02-20T08:03:00.499Z,22.81
2017-02-20T08:04:00.492Z,23.39
2017-02-20T08:05:00.549Z,23.39
2017-02-20T08:06:00.560Z,23.39
2017-02-20T08:07:00.570Z,22.91
2017-02-20T08:08:00.569Z,23.39
2017-02-20T08:09:00.541Z,23.19
2017-02-20T08:10:00.536Z,23
2017-02-20T08:11:00.538Z,22.91
2017-02-20T08:12:00.541Z,23.59
2017-02-20T08:13:00.802Z,23.39
2017-02-20T08:14:00.610Z,23.1
2017-02-20T08:15:00.613Z,23.39
2017-02-20T08:16:00.571Z,23.39
2017-02-20T08:17:01.735Z,23.1
2017-02-20T08:18:00.645Z,23.39
2017-02-20T08:19:00.588Z,23
2017-02-20T08:20:00.593Z,22.91
2017-02-20T08:21:00.749Z,22.91
2017-02-20T08:22:00.608Z,22.91
2017-02-20T08:23:00.611Z,23.29
2017-02-20T08:24:00.625Z,23.1
2017-02-20T08:25:00.637Z,23.29
2017-02-20T08:26:00.642Z,23.11
2017-02-20T08:27:00.700Z,23.01
2017-02-20T08:28:00.644Z,23.01
2017-02-20T08:29:00.699Z,23.1
2017-02-20T08:30:00.263Z,22.91
2017-02-20T08:31:00.266Z,22.91
2017-02-20T08:32:00.676Z,23.11
2017-02-20T08:33:00.685Z,22.81
2017-02-20T08:34:00.684Z,23.01
2017-02-20T08:35:00.786Z,22.63
2017-02-20T08:36:00.717Z,22.91
2017-02-20T08:37:00.711Z,22.82
2017-02-20T08:38:00.760Z,22.91
2017-02-20T08:39:00.716Z,22.91
2017-02-20T08:40:00.771Z,22.72
2017-02-20T08:41:00.735Z,23.01
2017-02-20T08:42:00.730Z,22.72
2017-02-20T08:43:00.741Z,23.01
2017-02-20T08:44:00.744Z,22.14
2017-02-20T08:45:00.759Z,22.43
2017-02-20T08:46:00.808Z,22.14
2017-02-20T08:47:00.868Z,22.24
2017-02-20T08:48:00.774Z,22.63
2017-02-20T08:49:00.784Z,22.82
2017-02-20T08:50:00.446Z,22.82
2017-02-20T08:51:00.395Z,22.82
2017-02-20T08:52:00.853Z,22.63
2017-02-20T08:53:00.802Z,22.63
2017-02-20T08:54:00.809Z,23.01
2017-02-20T08:55:00.865Z,22.91
2017-02-20T08:56:00.874Z,23.01
2017-02-20T08:57:00.827Z,22.82
2017-02-20T08:58:00.839Z,22.91
2017-02-20T08:59:00.842Z,22.91
2017-02-20T09:00:00.848Z,22.72
2017-02-20T09:01:00.851Z,22.72
2017-02-20T09:02:00.868Z,22.91
2017-02-20T09:03:00.869Z,22.82
2017-02-20T09:04:00.870Z,22.91
2017-02-20T09:05:00.932Z,23.01
2017-02-20T09:06:00.889Z,23.01
2017-02-20T09:07:00.992Z,22.91
2017-02-20T09:08:00.896Z,22.72
2017-02-20T09:09:00.907Z,22.91
2017-02-20T09:10:00.912Z,22.91
2017-02-20T09:11:00.928Z,22.63
2017-02-20T09:12:00.923Z,22.63
2017-02-20T09:13:00.979Z,22.91
2017-02-20T09:14:00.942Z,22.82
2017-02-20T09:15:01.124Z,23.01
2017-02-20T09:16:00.956Z,22.82
2017-02-20T09:17:00.961Z,22.63
2017-02-20T09:18:00.577Z,22.63
2017-02-20T09:19:00.969Z,22.72
2017-02-20T09:20:00.976Z,23.01
2017-02-20T09:21:00.588Z,23.11
2017-02-20T09:22:00.989Z,22.91
2017-02-20T09:23:01.048Z,22.72
2017-02-20T09:24:01.002Z,22.82
2017-02-20T09:25:01.009Z,22.91
2017-02-20T09:26:01.014Z,23.01
2017-02-20T09:27:01.022Z,23.01
2017-02-20T09:28:01.028Z,22.91
2017-02-20T09:29:01.083Z,22.91
2017-02-20T09:30:00.695Z,23.01
2017-02-20T09:31:01.046Z,22.91
2017-02-20T09:32:01.103Z,22.63
2017-02-20T09:33:01.111Z,22.82
2017-02-20T09:34:01.079Z,23.01
2017-02-20T09:35:01.123Z,22.72
2017-02-20T09:36:01.134Z,22.91
2017-02-20T09:37:01.095Z,23.01
2017-02-20T09:38:01.091Z,23.11
2017-02-20T09:39:01.111Z,23.11
2017-02-20T09:40:01.107Z,22.91
2017-02-20T09:41:01.110Z,22.91
2017-02-20T09:42:01.121Z,22.83
2017-02-20T09:43:01.129Z,22.72
2017-02-20T09:44:01.141Z,23.11
2017-02-20T09:45:01.188Z,22.91
2017-02-20T09:46:00.747Z,23.01
2017-02-20T09:47:01.200Z,23.01
2017-02-20T09:48:00.760Z,22.91
2017-02-20T09:49:01.165Z,23.01
2017-02-20T09:50:00.776Z,23.01
2017-02-20T09:51:01.175Z,23.01
2017-02-20T09:52:01.181Z,23.01
2017-02-20T09:53:01.191Z,22.91
2017-02-20T09:54:01.195Z,22.91
2017-02-20T09:55:01.202Z,23.01
2017-02-20T09:56:01.210Z,23.11
2017-02-20T09:57:01.216Z,22.91
2017-02-20T09:58:01.321Z,23.01
2017-02-20T09:59:01.275Z,23.11
2017-02-20T10:00:01.240Z,22.91
2017-02-20T10:01:01.253Z,22.91
2017-02-20T10:02:01.297Z,22.91
2017-02-20T10:03:00.859Z,22.91
2017-02-20T10:04:00.918Z,23.21
2017-02-20T10:05:01.276Z,23.4
2017-02-20T10:06:01.321Z,23.5
2017-02-20T10:07:01.278Z,23.4
2017-02-20T10:08:01.283Z,23.11
2017-02-20T10:09:01.291Z,23.11
2017-02-20T10:10:00.902Z,22.91
2017-02-20T10:11:01.303Z,23.4
2017-02-20T10:12:01.320Z,23.11
2017-02-20T10:13:01.378Z,23.4
2017-02-20T10:14:01.323Z,23.11
2017-02-20T10:15:01.433Z,23.11
2017-02-20T10:16:01.014Z,23.21
2017-02-20T10:17:01.341Z,23.11
2017-02-20T10:18:01.398Z,23.4
2017-02-20T10:19:01.356Z,23.3
2017-02-20T10:20:00.964Z,23.5
2017-02-20T10:21:01.424Z,23.5
2017-02-20T10:22:01.038Z,23.3
2017-02-20T10:23:01.418Z,23.21
2017-02-20T10:24:01.388Z,23.3
2017-02-20T10:25:01.004Z,23.3
2017-02-20T10:26:01.003Z,23.01
2017-02-20T10:27:01.417Z,23.11
2017-02-20T10:28:01.412Z,23.3
2017-02-20T10:29:01.028Z,23.4
2017-02-20T10:30:01.442Z,23.3
2017-02-20T10:31:01.085Z,23.21
2017-02-20T10:32:01.093Z,23.3
2017-02-20T10:33:01.443Z,23.3
2017-02-20T10:34:01.452Z,23.4
2017-02-20T10:35:01.459Z,23.4
2017-02-20T10:36:01.463Z,23.5
2017-02-20T10:37:01.536Z,22.91
2017-02-20T10:38:01.092Z,22.91
2017-02-20T10:39:01.086Z,23.3
2017-02-20T10:40:01.493Z,23.4
2017-02-20T10:41:01.501Z,22.82
2017-02-20T10:42:01.612Z,23.5
2017-02-20T10:43:01.558Z,23.3
2017-02-20T10:44:01.132Z,23.59
2017-02-20T10:45:01.520Z,23.5
2017-02-20T10:46:01.533Z,23.11
2017-02-20T10:47:01.187Z,23.3
2017-02-20T10:48:01.599Z,23.11
2017-02-20T10:49:01.547Z,23.11
2017-02-20T10:50:01.561Z,23.11
2017-02-20T10:51:01.611Z,23.3
2017-02-20T10:52:01.565Z,23.22
2017-02-20T10:53:01.623Z,23.21
2017-02-20T10:54:01.181Z,23.3
2017-02-20T10:55:01.591Z,23.4
2017-02-20T10:56:01.598Z,23.32
2017-02-20T10:57:01.597Z,22.92
2017-02-20T10:58:01.212Z,23.11
2017-02-20T10:59:01.664Z,23.3
2017-02-20T11:00:01.623Z,23.3
2017-02-20T11:01:01.686Z,23.3
2017-02-20T11:02:01.648Z,23.11
2017-02-20T11:03:01.686Z,23.21
2017-02-20T11:04:01.646Z,23.3
2017-02-20T11:05:01.652Z,23.3
2017-02-20T11:06:01.733Z,23.32
2017-02-20T11:07:01.717Z,23.32
2017-02-20T11:08:01.330Z,23.21
2017-02-20T11:09:01.685Z,23.21
2017-02-20T11:10:01.795Z,23.4
2017-02-20T11:11:01.751Z,23.12
2017-02-20T11:12:01.762Z,23.41
2017-02-20T11:13:01.816Z,23.32
2017-02-20T11:14:01.822Z,23.41
2017-02-20T11:15:01.728Z,23.21
2017-02-20T11:16:01.730Z,23.11
2017-02-20T11:17:01.735Z,23.21
2017-02-20T11:18:01.793Z,23.01
2017-02-20T11:19:01.752Z,23.22
2017-02-20T11:20:01.763Z,23.5
2017-02-20T11:21:01.772Z,24.38
2017-02-20T11:22:01.820Z,24.08
2017-02-20T11:23:01.774Z,24.08
2017-02-20T11:24:01.784Z,24.27
2017-02-20T11:25:02.935Z,24.08
2017-02-20T11:26:01.805Z,24.08
2017-02-20T11:27:01.850Z,24.37
2017-02-20T11:28:01.806Z,24.08
2017-02-20T11:29:01.817Z,24.18
2017-02-20T11:30:01.819Z,24.17
2017-02-20T11:31:01.833Z,24.27
2017-02-20T11:32:01.848Z,24.17
2017-02-20T11:33:01.894Z,24.27
2017-02-20T11:34:01.849Z,24.17
2017-02-20T11:35:01.856Z,24.17
2017-02-20T11:36:01.860Z,24.46
2017-02-20T11:37:01.489Z,24.56
2017-02-20T11:38:01.876Z,24.37
2017-02-20T11:39:01.931Z,24.08
2017-02-20T11:40:01.939Z,24.37
2017-02-20T11:41:01.511Z,24.08
2017-02-20T11:42:01.907Z,24.57
2017-02-20T11:43:01.905Z,24.08
2017-02-20T11:44:01.917Z,24.57
2017-02-20T11:45:01.970Z,24.46
2017-02-20T11:46:01.988Z,25.24
2017-02-20T11:47:01.936Z,24.96
2017-02-20T11:48:01.944Z,25.04
2017-02-20T11:49:02.001Z,25.04
2017-02-20T11:50:01.993Z,25.04
2017-02-20T11:51:01.964Z,25.34
2017-02-20T11:52:01.969Z,25.24
2017-02-20T11:53:02.032Z,25.14
2017-02-20T11:54:02.033Z,25.92
2017-02-20T11:55:01.995Z,25.82
2017-02-20T11:56:02.048Z,26.1
2017-02-20T11:57:02.054Z,25.82
2017-02-20T11:58:02.559Z,26.2
2017-02-20T11:59:02.017Z,25.92
2017-02-20T12:00:02.024Z,26.2
2017-02-20T12:01:02.044Z,25.82
2017-02-20T12:02:02.038Z,26.01
2017-02-20T12:03:02.042Z,26.01
2017-02-20T12:04:02.047Z,26.01
2017-02-20T12:05:02.068Z,26.01
2017-02-20T12:06:02.075Z,26.2
2017-02-20T12:07:02.066Z,26.4
2017-02-20T12:08:02.092Z,26.5
2017-02-20T12:09:02.146Z,26.19
2017-02-20T12:10:02.088Z,26.2
2017-02-20T12:11:02.144Z,26.4
2017-02-20T12:12:02.151Z,26.2
2017-02-20T12:13:01.711Z,26.4
2017-02-20T12:14:02.111Z,26.3
2017-02-20T12:15:02.184Z,26.4
2017-02-20T12:16:02.132Z,26.3
2017-02-20T12:17:02.135Z,26.5
2017-02-20T12:18:02.189Z,26.4
2017-02-20T12:19:02.151Z,26.4
2017-02-20T12:20:01.764Z,26.59
2017-02-20T12:21:02.217Z,26.57
2017-02-20T12:22:02.225Z,26.4
2017-02-20T12:23:02.170Z,26.67
2017-02-20T12:24:02.228Z,26.59
2017-02-20T12:25:02.180Z,26.4
2017-02-20T12:26:02.239Z,26.68
2017-02-20T12:27:01.803Z,26.68
2017-02-20T12:28:02.202Z,26.5
2017-02-20T12:29:02.246Z,26.5
2017-02-20T12:30:02.512Z,26.59
2017-02-20T12:31:02.278Z,26.5
2017-02-20T12:32:02.229Z,26.5
2017-02-20T12:33:02.287Z,26.5
2017-02-20T12:34:02.252Z,26.78
2017-02-20T12:35:01.966Z,26.88
2017-02-20T12:36:02.304Z,27.17
2017-02-20T12:37:02.309Z,26.78
2017-02-20T12:38:02.356Z,26.88
2017-02-20T12:39:02.288Z,26.68
2017-02-20T12:40:02.281Z,26.87
2017-02-20T12:41:02.353Z,26.67
2017-02-20T12:42:01.898Z,26.68
2017-02-20T12:43:02.355Z,26.77
2017-02-20T12:44:02.506Z,26.59
2017-02-20T12:45:02.314Z,26.68
2017-02-20T12:46:02.371Z,27.17
2017-02-20T12:47:02.555Z,27.08
2017-02-20T12:48:02.330Z,27.17
2017-02-20T12:49:02.044Z,27.08
2017-02-20T12:50:02.346Z,26.4
2017-02-20T12:51:02.368Z,26.59
2017-02-20T12:52:02.408Z,26.68
2017-02-20T12:53:02.362Z,26.5
2017-02-20T12:54:02.720Z,26.59
2017-02-20T12:55:02.429Z,26.59
2017-02-20T12:56:02.383Z,26.3
2017-02-20T12:57:02.501Z,26.59
2017-02-20T12:58:02.395Z,26.4